Baltimore, Maryland
Traffic Map
Current Weather Conditions
Baltimore, Maryland
Scattered Clouds
Scattered Clouds
-2°
Feels Like: -2°
Wind Chill: -2° Ceiling: Unl
Heat Index: -2° Visibility: 10mi
Dew Point: -8° Wind: 0mph
Humidity: 64% Direction: ° ()
Pressure: 30.29in Gusts: 0mph
Raw Report DataKBWI 282354Z 00000KT 10SM FEW120 SCT250 M02/M08 A3029 RMK AO2 SLP257 T10171078 10039 21017 53011
Traffic Incident Summary
Active as of:
Severity:
Category:
InformationThere was an issue retrieving the traffic information for this location. Please try a different location or try again shortly.
Advertisements
Track Severe Weather on mobile